Time;durP1;ratioP1;P1;durP2;ratioP2;P2;SDS_P1;SDS_P2;PMS_P1;PMS_P2;Temp;Humidity;BMP_temperature;BMP_pressure;BME280_temperature;BME280_humidity;BME280_pressure;Samples;Min_cycle;Max_cycle;Signal;HPM_P1;HPM_P2
2023/11/30 00:00:20;;;;;;;54.20;31.27;;;2.50;99.90;;;;;;790769;180;26427;-89
2023/11/30 00:02:47;;;;;;;51.77;31.37;;;2.50;99.60;;;;;;785175;182;26489;-90
2023/11/30 00:05:14;;;;;;;41.93;25.60;;;2.50;99.50;;;;;;783958;181;26488;-89
2023/11/30 00:07:40;;;;;;;52.03;30.00;;;2.40;99.30;;;;;;787976;181;27034;-90
2023/11/30 00:10:08;;;;;;;46.80;28.03;;;2.40;99.30;;;;;;783125;179;26993;-90
2023/11/30 00:12:34;;;;;;;42.80;27.53;;;2.30;99.30;;;;;;797379;178;26450;-89
2023/11/30 00:15:01;;;;;;;42.07;26.67;;;2.30;99.30;;;;;;794619;180;26935;-89
2023/11/30 00:17:28;;;;;;;44.87;27.80;;;2.40;99.60;;;;;;775520;182;26563;-89
2023/11/30 00:19:54;;;;;;;38.00;26.47;;;2.30;99.40;;;;;;779059;183;26469;-89
2023/11/30 00:22:21;;;;;;;50.20;27.83;;;2.40;99.40;;;;;;775284;182;26530;-89
2023/11/30 00:24:48;;;;;;;50.00;29.37;;;2.30;99.30;;;;;;767276;184;26474;-89
2023/11/30 00:27:15;;;;;;;48.90;28.83;;;2.50;99.70;;;;;;772466;184;26568;-89
2023/11/30 00:29:41;;;;;;;35.97;24.90;;;2.60;99.70;;;;;;791562;179;27052;-90
2023/11/30 00:32:08;;;;;;;30.90;20.43;;;2.60;99.60;;;;;;782014;181;26452;-90
2023/11/30 00:35:16;;;;;;;;;;;;;;;;;;;;;
2023/11/30 00:37:43;;;;;;;39.33;24.63;;;2.40;99.30;;;;;;754717;181;27100;-89
2023/11/30 00:40:13;;;;;;;36.77;22.83;;;2.50;99.40;;;;;;763387;188;26543;-89
2023/11/30 00:42:40;;;;;;;31.67;21.77;;;2.50;99.50;;;;;;759332;188;26513;-89
2023/11/30 00:45:09;;;;;;;32.53;19.80;;;2.40;99.50;;;;;;753091;187;26586;-90
2023/11/30 00:47:39;;;;;;;35.00;20.47;;;2.40;99.30;;;;;;753178;188;26508;-90
2023/11/30 00:50:07;;;;;;;32.17;20.13;;;2.30;99.20;;;;;;750380;191;27047;-90
2023/11/30 00:52:34;;;;;;;40.23;24.53;;;2.30;99.30;;;;;;758021;187;26568;-89
2023/11/30 00:55:00;;;;;;;34.80;23.50;;;2.30;99.30;;;;;;757350;188;26485;-90
2023/11/30 00:57:27;;;;;;;41.60;24.93;;;2.30;99.30;;;;;;761707;186;27067;-90
2023/11/30 01:00:00;;;;;;;39.10;25.43;;;2.30;99.60;;;;;;755772;187;26528;-91
2023/11/30 01:02:23;;;;;;;200.50;36.10;;;2.30;99.50;;;;;;751345;187;26487;-90
2023/11/30 01:04:50;;;;;;;46.17;27.63;;;2.30;99.50;;;;;;757175;188;28104;-90
2023/11/30 01:07:17;;;;;;;44.17;27.27;;;2.30;99.50;;;;;;743433;190;26503;-90
2023/11/30 01:09:44;;;;;;;44.43;27.63;;;2.30;99.80;;;;;;757667;188;26533;-90
2023/11/30 01:12:11;;;;;;;39.57;25.37;;;2.30;99.60;;;;;;760893;187;26490;-89
2023/11/30 01:14:41;;;;;;;36.43;23.70;;;2.40;99.60;;;;;;759518;184;27073;-90
2023/11/30 01:17:08;;;;;;;38.87;25.20;;;2.40;99.70;;;;;;767259;184;26632;-90
2023/11/30 01:19:35;;;;;;;39.50;25.27;;;2.50;99.80;;;;;;750407;188;27073;-90
2023/11/30 01:22:01;;;;;;;35.37;23.67;;;2.60;99.80;;;;;;767550;187;26505;-90
2023/11/30 01:24:28;;;;;;;36.70;24.53;;;2.60;99.90;;;;;;752808;190;26541;-90
2023/11/30 01:26:55;;;;;;;36.23;23.70;;;2.70;99.90;;;;;;767299;182;27058;-90
2023/11/30 01:29:24;;;;;;;27.63;18.70;;;2.80;99.90;;;;;;751121;189;26627;-90
2023/11/30 01:31:51;;;;;;;24.00;17.73;;;2.80;99.90;;;;;;745326;189;26513;-92
2023/11/30 01:34:22;;;;;;;28.40;21.13;;;2.80;99.90;;;;;;748448;191;26485;-90
2023/11/30 01:36:48;;;;;;;34.87;21.00;;;2.90;99.90;;;;;;737900;191;26536;-90
2023/11/30 01:39:17;;;;;;;26.23;17.17;;;2.90;99.80;;;;;;749618;190;26499;-91
2023/11/30 01:41:44;;;;;;;22.97;16.43;;;2.90;99.70;;;;;;758063;187;26493;-91
2023/11/30 01:44:11;;;;;;;22.83;15.60;;;2.80;99.60;;;;;;754852;189;26584;-90
2023/11/30 01:46:38;;;;;;;21.97;16.17;;;2.80;99.60;;;;;;760626;187;26542;-89
2023/11/30 01:49:05;;;;;;;23.93;17.03;;;2.80;99.60;;;;;;766616;184;27132;-90
2023/11/30 01:51:34;;;;;;;23.43;16.93;;;2.70;99.50;;;;;;764657;187;26495;-90
2023/11/30 01:54:00;;;;;;;31.40;21.37;;;2.80;99.60;;;;;;750638;190;26528;-90
2023/11/30 01:56:26;;;;;;;24.50;16.70;;;2.70;99.50;;;;;;750813;188;26530;-91
2023/11/30 01:58:56;;;;;;;26.80;16.63;;;2.70;99.50;;;;;;766893;187;26495;-92
2023/11/30 02:01:24;;;;;;;25.37;16.73;;;2.80;99.60;;;;;;770914;182;26489;-91
2023/11/30 02:03:51;;;;;;;30.80;19.33;;;2.80;99.60;;;;;;763568;184;26886;-92
2023/11/30 02:06:19;;;;;;;25.13;16.97;;;2.70;99.50;;;;;;759988;183;26524;-91
2023/11/30 02:08:45;;;;;;;24.07;17.40;;;2.70;99.50;;;;;;759968;189;26506;-91
2023/11/30 02:11:12;;;;;;;23.93;16.83;;;2.80;99.60;;;;;;765901;183;26506;-90
2023/11/30 02:13:40;;;;;;;24.43;16.67;;;2.90;99.80;;;;;;764198;187;26518;-90
2023/11/30 02:16:07;;;;;;;28.50;19.53;;;2.90;99.60;;;;;;763329;185;27108;-90
2023/11/30 02:18:34;;;;;;;19.33;14.00;;;2.80;99.50;;;;;;763653;188;26502;-92
2023/11/30 02:21:00;;;;;;;18.90;13.83;;;2.80;99.50;;;;;;763970;185;26499;-91
2023/11/30 02:23:28;;;;;;;29.43;19.80;;;2.70;99.40;;;;;;764232;188;26649;-90
2023/11/30 02:25:54;;;;;;;26.57;17.97;;;2.70;99.30;;;;;;753507;188;26490;-90
2023/11/30 02:28:23;;;;;;;23.93;17.30;;;2.70;99.30;;;;;;736889;195;26547;-90
2023/11/30 02:30:51;;;;;;;30.97;19.67;;;2.60;99.30;;;;;;754230;188;28118;-90
2023/11/30 02:33:19;;;;;;;29.33;18.87;;;2.70;99.40;;;;;;750966;191;26524;-89
2023/11/30 02:35:47;;;;;;;27.17;17.80;;;2.80;99.40;;;;;;767129;184;26551;-90
2023/11/30 02:38:15;;;;;;;22.80;15.60;;;2.80;99.30;;;;;;753311;191;26528;-90
2023/11/30 02:40:41;;;;;;;28.57;19.10;;;2.80;99.30;;;;;;763615;185;27247;-90
2023/11/30 02:43:11;;;;;;;20.20;15.07;;;2.80;99.40;;;;;;752055;190;27068;-90
2023/11/30 02:45:37;;;;;;;29.23;19.50;;;2.70;99.30;;;;;;751001;190;27039;-89
2023/11/30 02:48:04;;;;;;;29.10;17.70;;;2.70;99.30;;;;;;752920;185;27056;-90
2023/11/30 02:50:32;;;;;;;26.53;18.67;;;2.70;99.40;;;;;;756878;186;26505;-90
2023/11/30 02:52:58;;;;;;;43.70;22.90;;;2.70;99.40;;;;;;751904;188;27054;-90
2023/11/30 02:55:25;;;;;;;24.73;17.83;;;2.90;99.70;;;;;;760329;187;26485;-89
2023/11/30 02:57:51;;;;;;;21.80;16.23;;;2.90;99.50;;;;;;760145;185;26546;-90
2023/11/30 03:00:18;;;;;;;25.90;17.70;;;2.90;99.40;;;;;;762115;186;27184;-91
2023/11/30 03:02:46;;;;;;;29.97;17.80;;;2.90;99.20;;;;;;759449;187;26499;-90
2023/11/30 03:05:12;;;;;;;27.13;18.27;;;2.90;99.10;;;;;;746945;190;26535;-90
2023/11/30 03:07:40;;;;;;;28.37;18.10;;;3.00;99.20;;;;;;803622;176;26449;-90
2023/11/30 03:10:08;;;;;;;24.93;16.60;;;3.20;99.00;;;;;;818853;175;26412;-90
2023/11/30 03:12:34;;;;;;;25.33;18.20;;;3.20;98.80;;;;;;821215;174;26423;-89
2023/11/30 03:15:01;;;;;;;23.93;16.67;;;3.20;98.90;;;;;;820605;174;26411;-91
2023/11/30 03:17:28;;;;;;;31.00;20.73;;;3.10;98.90;;;;;;808614;176;26453;-90
2023/11/30 03:19:54;;;;;;;29.53;19.70;;;3.10;98.90;;;;;;803875;179;28003;-90
2023/11/30 03:22:21;;;;;;;36.33;22.40;;;3.10;98.60;;;;;;803683;179;26437;-90
2023/11/30 03:24:49;;;;;;;22.93;16.73;;;3.30;98.70;;;;;;803631;179;26404;-90
2023/11/30 03:27:16;;;;;;;24.40;17.27;;;3.30;97.80;;;;;;803748;173;27045;-90
2023/11/30 03:29:43;;;;;;;32.20;20.23;;;3.20;97.60;;;;;;808112;178;26412;-90
2023/11/30 03:32:11;;;;;;;29.33;18.97;;;3.20;97.70;;;;;;808114;178;26411;-90
2023/11/30 03:34:38;;;;;;;23.83;17.37;;;3.30;98.00;;;;;;807983;178;26414;-91
2023/11/30 03:37:05;;;;;;;28.17;18.67;;;3.30;97.80;;;;;;807961;177;26997;-89
2023/11/30 03:39:34;;;;;;;27.87;19.03;;;3.30;97.80;;;;;;807828;178;26436;-90
2023/11/30 03:42:02;;;;;;;39.33;21.83;;;3.30;97.00;;;;;;808034;177;26408;-90
2023/11/30 03:44:28;;;;;;;34.03;20.13;;;3.30;97.30;;;;;;808919;172;26399;-90
2023/11/30 03:46:56;;;;;;;27.27;18.57;;;3.30;97.60;;;;;;810192;178;28085;-92
2023/11/30 03:49:23;;;;;;;30.40;19.03;;;3.20;97.50;;;;;;808408;178;26410;-90
2023/11/30 03:51:50;;;;;;;28.97;19.43;;;3.20;97.50;;;;;;810696;175;27052;-90
2023/11/30 03:54:16;;;;;;;32.30;20.50;;;3.20;97.80;;;;;;810078;172;26423;-90
2023/11/30 03:56:46;;;;;;;30.27;19.60;;;3.20;97.70;;;;;;809362;172;26466;-90
2023/11/30 03:59:13;;;;;;;33.40;19.03;;;3.20;97.70;;;;;;809511;177;28039;-89
2023/11/30 04:01:39;;;;;;;27.23;18.27;;;3.20;97.60;;;;;;809227;177;26966;-90
2023/11/30 04:04:06;;;;;;;25.27;17.27;;;3.10;97.50;;;;;;808786;177;26446;-92
2023/11/30 04:06:33;;;;;;;41.47;22.10;;;3.10;97.40;;;;;;804877;178;26505;-91
2023/11/30 04:09:00;;;;;;;33.23;21.93;;;3.30;98.00;;;;;;804787;173;26416;-89
2023/11/30 04:11:26;;;;;;;26.73;18.87;;;3.20;97.80;;;;;;804386;173;26414;-89
2023/11/30 04:13:53;;;;;;;27.33;18.27;;;3.30;97.90;;;;;;804344;178;26426;-91
2023/11/30 04:16:21;;;;;;;32.57;19.93;;;3.30;97.30;;;;;;803928;173;26492;-90
2023/11/30 04:18:48;;;;;;;25.37;17.10;;;3.20;97.00;;;;;;803828;178;27979;-91
2023/11/30 04:21:15;;;;;;;32.40;20.77;;;3.10;97.00;;;;;;804138;179;27039;-90
2023/11/30 04:23:42;;;;;;;34.27;20.17;;;3.30;97.80;;;;;;804247;176;26421;-90
2023/11/30 04:26:10;;;;;;;29.70;20.17;;;3.40;97.30;;;;;;803929;179;26436;-90
2023/11/30 04:28:52;;;;;;;30.13;17.87;;;3.40;97.50;;;;;;802705;176;26417;-90
2023/11/30 04:31:21;;;;;;;29.23;19.83;;;3.30;97.20;;;;;;802546;179;26945;-91
2023/11/30 04:33:47;;;;;;;26.60;19.20;;;3.40;97.40;;;;;;802487;179;26415;-90
2023/11/30 04:36:15;;;;;;;26.57;17.57;;;3.40;97.50;;;;;;802406;179;26433;-92
2023/11/30 04:38:45;;;;;;;45.73;24.37;;;3.30;97.20;;;;;;802482;173;28049;-91
2023/11/30 04:41:20;;;;;;;32.57;21.23;;;3.40;97.80;;;;;;802530;173;26425;-91
2023/11/30 04:43:48;;;;;;;31.83;19.93;;;3.40;97.40;;;;;;802743;174;26412;-92
2023/11/30 04:46:23;;;;;;;29.47;19.43;;;3.30;97.20;;;;;;802509;176;26435;-91
2023/11/30 04:48:53;;;;;;;31.03;19.80;;;3.30;97.20;;;;;;802692;179;27024;-90
2023/11/30 04:53:56;;;;;;;29.97;19.23;;;3.30;97.00;;;;;;802649;179;27048;-90
2023/11/30 04:56:29;;;;;;;39.20;22.60;;;3.30;97.20;;;;;;807150;177;26504;-91
2023/11/30 04:58:57;;;;;;;36.13;21.00;;;3.30;97.40;;;;;;807323;178;26496;-92
2023/11/30 05:01:25;;;;;;;33.53;21.27;;;3.40;97.70;;;;;;807613;174;26466;-90
2023/11/30 05:03:57;;;;;;;29.50;18.87;;;3.40;97.50;;;;;;810237;175;26411;-91
2023/11/30 05:06:26;;;;;;;31.03;19.57;;;3.40;97.60;;;;;;810041;173;26433;-92
2023/11/30 05:09:05;;;;;;;;;;;;;;;;;;;;;
2023/11/30 05:11:36;;;;;;;29.13;19.30;;;3.40;97.60;;;;;;809170;174;26429;-90
2023/11/30 05:14:07;;;;;;;29.00;19.33;;;3.40;97.20;;;;;;815495;176;28031;-91
2023/11/30 05:16:35;;;;;;;31.60;21.20;;;3.50;97.50;;;;;;806900;176;26968;-91
2023/11/30 05:19:31;;;;;;;29.13;19.60;;;3.50;97.90;;;;;;807814;177;26407;-91
2023/11/30 05:30:32;;;;;;;31.57;20.83;;;3.50;97.40;;;;;;745031;175;26588;-91
2023/11/30 05:33:08;;;;;;;34.97;21.57;;;3.50;97.20;;;;;;778251;183;27039;-91
2023/11/30 05:36:06;;;;;;;;;;;;;;;;;;;;;
2023/11/30 05:38:55;;;;;;;;;;;;;;;;;;;;;
2023/11/30 05:41:38;;;;;;;36.00;20.97;;;3.40;97.40;;;;;;774553;182;26477;-92
2023/11/30 05:44:16;;;;;;;47.03;22.93;;;3.40;97.50;;;;;;790269;181;26445;-91
2023/11/30 05:46:49;;;;;;;31.70;20.63;;;3.40;97.90;;;;;;785715;174;27658;-86
2023/11/30 05:49:18;;;;;;;35.47;20.93;;;3.60;98.30;;;;;;775041;185;26443;-88
2023/11/30 05:51:53;;;;;;;33.50;20.53;;;3.60;98.20;;;;;;773404;185;27093;-86
2023/11/30 05:54:21;;;;;;;26.33;17.23;;;3.70;98.10;;;;;;773339;186;26459;-88
2023/11/30 05:56:47;;;;;;;39.00;23.13;;;3.80;98.20;;;;;;773334;185;26541;-88
2023/11/30 05:59:23;;;;;;;31.13;19.20;;;3.80;98.00;;;;;;769303;183;26522;-88
2023/11/30 06:01:53;;;;;;;56.77;21.03;;;3.70;97.30;;;;;;761931;186;27125;-89
2023/11/30 06:04:20;;;;;;;41.33;21.40;;;3.60;97.20;;;;;;793056;181;26493;-89
2023/11/30 06:09:20;;;;;;;41.00;21.53;;;3.70;97.70;;;;;;789767;181;26420;-88
2023/11/30 06:11:53;;;;;;;42.53;22.63;;;3.70;97.60;;;;;;785966;178;28055;-88
2023/11/30 06:14:37;;;;;;;30.97;19.53;;;3.60;97.50;;;;;;786072;181;26446;-88
2023/11/30 06:20:18;;;;;;;30.40;18.67;;;3.60;97.60;;;;;;728158;177;26527;-86
2023/11/30 06:22:45;;;;;;;33.17;19.73;;;3.60;97.60;;;;;;783885;183;26479;-87
2023/11/30 06:25:11;;;;;;;28.60;18.87;;;3.70;97.60;;;;;;782631;180;26499;-86
2023/11/30 06:27:45;;;;;;;33.00;19.13;;;3.70;97.90;;;;;;756801;184;26514;-87
2023/11/30 06:30:12;;;;;;;34.73;20.60;;;3.70;97.80;;;;;;767980;184;26551;-86
2023/11/30 06:32:39;;;;;;;32.47;19.37;;;3.70;97.80;;;;;;764104;187;26510;-86
2023/11/30 06:37:49;;;;;;;36.33;20.23;;;3.70;97.70;;;;;;776548;184;27059;-86
2023/11/30 06:40:34;;;;;;;31.50;17.77;;;3.80;97.50;;;;;;773801;182;26505;-86
2023/11/30 06:43:17;;;;;;;35.73;20.57;;;3.70;97.00;;;;;;769714;184;26576;-87
2023/11/30 06:46:14;;;;;;;36.70;19.80;;;3.80;97.20;;;;;;769254;184;28096;-83
2023/11/30 06:48:47;;;;;;;37.43;21.33;;;3.70;96.90;;;;;;769697;183;27064;-86
2023/11/30 06:54:29;;;;;;;;;;;;;;;;;;;;;
2023/11/30 06:56:59;;;;;;;33.30;19.60;;;3.60;97.10;;;;;;765030;184;26536;-86
2023/11/30 07:01:59;;;;;;;31.10;19.40;;;3.80;97.50;;;;;;773365;186;27004;-85
2023/11/30 07:04:35;;;;;;;;;;;;;;;;;;;;;
2023/11/30 07:07:02;;;;;;;35.07;19.87;;;3.60;96.90;;;;;;773211;183;27063;-87
2023/11/30 07:09:28;;;;;;;102.57;24.47;;;3.70;97.40;;;;;;773360;182;27069;-87
2023/11/30 07:11:55;;;;;;;32.37;18.63;;;3.70;97.70;;;;;;773381;182;26498;-87
2023/11/30 07:14:22;;;;;;;38.37;21.40;;;3.60;97.50;;;;;;773264;182;26494;-87
2023/11/30 07:16:50;;;;;;;32.57;19.23;;;3.70;97.90;;;;;;773267;182;26567;-87
2023/11/30 07:19:17;;;;;;;29.27;17.57;;;3.70;97.50;;;;;;773376;182;26485;-87
2023/11/30 07:21:43;;;;;;;30.60;18.80;;;3.70;97.60;;;;;;773391;182;26487;-88
2023/11/30 07:24:17;;;;;;;29.87;18.63;;;3.80;98.00;;;;;;773468;182;26477;-86
2023/11/30 07:26:51;;;;;;;29.27;18.43;;;3.80;97.50;;;;;;775862;183;27063;-87
2023/11/30 07:29:18;;;;;;;36.90;19.83;;;3.80;98.00;;;;;;775190;185;26481;-87
2023/11/30 07:31:50;;;;;;;33.37;19.00;;;3.80;97.50;;;;;;774763;182;26484;-87
2023/11/30 07:34:17;;;;;;;33.40;18.73;;;3.80;97.50;;;;;;774486;182;27017;-87
2023/11/30 07:36:43;;;;;;;33.00;19.97;;;3.80;97.50;;;;;;774235;183;26582;-87
2023/11/30 07:39:18;;;;;;;32.63;19.80;;;3.80;97.60;;;;;;774336;182;27038;-87
2023/11/30 07:41:56;;;;;;;33.97;19.80;;;3.80;97.40;;;;;;774375;183;26607;-87
2023/11/30 07:44:29;;;;;;;31.10;19.60;;;3.70;97.30;;;;;;774505;183;26512;-87
2023/11/30 07:46:56;;;;;;;42.33;21.50;;;3.70;97.30;;;;;;771195;182;26514;-86
2023/11/30 07:49:22;;;;;;;35.07;20.13;;;3.70;97.20;;;;;;769776;183;27026;-87
2023/11/30 07:51:49;;;;;;;33.17;19.40;;;3.70;97.60;;;;;;769728;183;26511;-86
2023/11/30 07:54:15;;;;;;;28.70;17.63;;;3.70;97.60;;;;;;769693;183;28094;-87
2023/11/30 07:56:42;;;;;;;33.87;19.53;;;3.70;97.30;;;;;;770525;182;26606;-86
2023/11/30 07:59:12;;;;;;;29.73;19.37;;;3.80;97.50;;;;;;769594;182;26480;-87
2023/11/30 08:01:42;;;;;;;30.63;18.10;;;3.80;97.60;;;;;;769134;184;26487;-86
2023/11/30 08:04:08;;;;;;;30.83;17.03;;;3.80;97.40;;;;;;769149;186;26507;-87
2023/11/30 08:06:34;;;;;;;30.57;17.73;;;3.90;97.50;;;;;;767985;185;26490;-87
2023/11/30 08:09:01;;;;;;;29.70;18.23;;;3.90;97.30;;;;;;769724;183;26502;-87
2023/11/30 08:11:28;;;;;;;27.77;17.70;;;3.90;97.10;;;;;;759176;186;26482;-87
2023/11/30 08:13:54;;;;;;;25.23;16.13;;;3.90;97.20;;;;;;769142;184;26486;-86
2023/11/30 08:16:21;;;;;;;31.50;18.57;;;3.90;96.80;;;;;;769679;182;26498;-86
2023/11/30 08:18:47;;;;;;;37.60;19.97;;;3.90;96.70;;;;;;769393;183;26496;-87
2023/11/30 08:21:14;;;;;;;27.67;17.70;;;3.90;97.10;;;;;;769650;183;26483;-87
2023/11/30 08:23:42;;;;;;;29.90;17.97;;;3.80;96.80;;;;;;769451;183;26483;-86
2023/11/30 08:31:38;;;;;;;29.67;17.33;;;3.80;96.80;;;;;;725366;179;26525;-88
2023/11/30 08:34:04;;;;;;;28.97;18.37;;;4.00;97.40;;;;;;779655;184;27115;-86
2023/11/30 08:36:31;;;;;;;30.13;18.50;;;4.20;97.70;;;;;;788485;177;26496;-87
2023/11/30 08:38:58;;;;;;;26.90;16.27;;;4.20;97.60;;;;;;787289;178;27016;-87
2023/11/30 08:41:30;;;;;;;140.47;27.83;;;4.30;97.40;;;;;;786521;182;26454;-86
2023/11/30 08:43:55;;;;;;;26.90;17.63;;;4.40;97.60;;;;;;786082;181;27957;-87
2023/11/30 08:46:22;;;;;;;35.17;19.33;;;4.50;96.90;;;;;;785523;182;27021;-87
2023/11/30 08:48:49;;;;;;;26.73;16.10;;;4.70;97.60;;;;;;785161;182;26487;-87
2023/11/30 08:51:16;;;;;;;27.80;16.10;;;4.70;96.60;;;;;;785203;182;27075;-89
2023/11/30 08:53:42;;;;;;;24.27;15.63;;;4.70;96.50;;;;;;785153;182;26487;-87
2023/11/30 08:56:10;;;;;;;20.57;14.20;;;4.70;96.20;;;;;;773145;183;26446;-86
2023/11/30 08:58:36;;;;;;;19.83;13.70;;;4.80;96.10;;;;;;784528;179;26478;-87
2023/11/30 09:01:03;;;;;;;31.43;17.87;;;4.70;95.60;;;;;;784670;182;26484;-87
2023/11/30 09:03:29;;;;;;;21.53;14.87;;;4.70;96.70;;;;;;784585;183;26467;-87
2023/11/30 09:05:56;;;;;;;24.17;14.57;;;4.70;95.70;;;;;;784715;183;26454;-88
2023/11/30 09:08:22;;;;;;;25.20;16.00;;;4.70;95.70;;;;;;784610;179;26993;-88
2023/11/30 09:10:49;;;;;;;25.50;15.20;;;4.70;96.10;;;;;;784710;179;26500;-89
2023/11/30 09:13:16;;;;;;;27.03;16.87;;;4.70;95.90;;;;;;784404;182;27035;-87
2023/11/30 09:15:42;;;;;;;26.33;14.90;;;4.80;96.50;;;;;;784227;182;26523;-87
2023/11/30 09:18:10;;;;;;;29.87;17.67;;;4.70;95.50;;;;;;784209;182;26471;-87
2023/11/30 09:20:36;;;;;;;28.23;16.97;;;4.80;95.70;;;;;;784024;183;26522;-88
2023/11/30 09:23:03;;;;;;;31.63;17.43;;;4.80;96.00;;;;;;784066;183;26486;-88
2023/11/30 09:25:29;;;;;;;29.43;17.50;;;4.90;96.30;;;;;;784004;179;26549;-88
2023/11/30 09:27:55;;;;;;;22.40;14.53;;;4.80;95.80;;;;;;784045;182;28103;-88
2023/11/30 09:30:22;;;;;;;21.40;14.63;;;4.80;95.40;;;;;;784214;182;26506;-87
2023/11/30 09:32:48;;;;;;;24.53;15.17;;;4.90;95.30;;;;;;784239;182;26539;-87
2023/11/30 09:35:15;;;;;;;24.50;15.77;;;4.90;95.30;;;;;;783931;183;26512;-88
2023/11/30 09:37:42;;;;;;;23.03;15.30;;;4.90;95.50;;;;;;784099;182;26560;-88
2023/11/30 09:40:10;;;;;;;19.90;14.10;;;4.90;95.90;;;;;;784030;182;26484;-87
2023/11/30 09:42:39;;;;;;;20.43;13.70;;;5.00;95.40;;;;;;783998;182;26518;-87
2023/11/30 09:45:07;;;;;;;21.50;14.33;;;5.10;95.50;;;;;;784034;179;26509;-87
2023/11/30 09:47:33;;;;;;;21.43;14.00;;;5.10;95.60;;;;;;784058;181;26466;-87
2023/11/30 09:50:00;;;;;;;19.97;13.77;;;5.10;95.70;;;;;;786712;181;26482;-89
2023/11/30 09:52:26;;;;;;;18.97;13.27;;;5.10;94.80;;;;;;786272;182;26463;-87
2023/11/30 09:54:55;;;;;;;19.50;12.90;;;5.20;95.80;;;;;;785702;182;27063;-88
2023/11/30 09:57:19;;;;;;;17.83;12.07;;;5.00;95.00;;;;;;785174;183;26466;-86
2023/11/30 09:59:46;;;;;;;18.60;13.07;;;5.00;95.30;;;;;;785206;182;26454;-87
2023/11/30 10:02:12;;;;;;;19.67;12.60;;;5.10;95.70;;;;;;785201;179;26454;-87
2023/11/30 10:04:40;;;;;;;19.07;12.70;;;5.20;95.30;;;;;;785132;183;26562;-87
2023/11/30 10:07:07;;;;;;;20.83;13.37;;;5.30;95.60;;;;;;784831;182;27039;-87
2023/11/30 10:09:33;;;;;;;23.40;11.87;;;5.30;95.10;;;;;;784633;183;26475;-88
2023/11/30 10:11:59;;;;;;;18.80;12.57;;;5.20;94.80;;;;;;784516;182;26491;-87
2023/11/30 10:14:26;;;;;;;19.80;11.83;;;5.30;95.60;;;;;;784535;179;26533;-87
2023/11/30 10:16:53;;;;;;;18.63;13.20;;;5.30;95.60;;;;;;784598;179;26491;-87
2023/11/30 10:19:19;;;;;;;15.93;11.47;;;5.40;96.00;;;;;;784719;183;27327;-88
2023/11/30 10:21:47;;;;;;;17.20;11.70;;;5.40;95.50;;;;;;784580;182;26459;-87
2023/11/30 10:24:12;;;;;;;14.90;10.43;;;5.40;94.50;;;;;;784381;182;27097;-88
2023/11/30 10:26:39;;;;;;;17.17;11.97;;;5.50;94.50;;;;;;784118;183;26516;-87
2023/11/30 10:29:23;;;;;;;13.63;10.40;;;5.60;94.80;;;;;;785292;183;26480;-88
2023/11/30 10:32:03;;;;;;;15.37;10.20;;;5.60;94.90;;;;;;785014;183;26462;-86
2023/11/30 10:34:29;;;;;;;14.57;10.20;;;5.70;93.90;;;;;;784094;179;27046;-88
2023/11/30 10:36:59;;;;;;;17.73;10.60;;;5.80;93.70;;;;;;783752;180;26488;-87
2023/11/30 10:39:25;;;;;;;15.17;11.40;;;5.90;94.70;;;;;;784199;182;26515;-86
2023/11/30 10:41:52;;;;;;;15.07;10.67;;;5.90;93.80;;;;;;784115;182;27030;-86
2023/11/30 10:44:26;;;;;;;13.50;9.90;;;5.90;94.50;;;;;;784133;180;26522;-86
2023/11/30 10:46:54;;;;;;;14.87;10.53;;;5.80;93.60;;;;;;784127;182;26499;-86
2023/11/30 10:49:20;;;;;;;11.63;8.87;;;5.90;94.20;;;;;;784142;179;26539;-85
2023/11/30 10:51:46;;;;;;;12.83;9.63;;;5.90;94.40;;;;;;784024;181;26480;-86
2023/11/30 10:54:14;;;;;;;14.37;10.17;;;5.90;93.20;;;;;;784116;182;27077;-86
2023/11/30 10:56:40;;;;;;;13.53;9.93;;;5.80;93.30;;;;;;783308;183;27106;-87
2023/11/30 10:59:16;;;;;;;13.80;10.63;;;5.90;93.70;;;;;;784047;182;26501;-86
2023/11/30 11:01:45;;;;;;;14.40;10.73;;;6.00;93.90;;;;;;786756;181;26458;-86
2023/11/30 11:04:14;;;;;;;13.87;9.80;;;6.10;94.10;;;;;;786116;182;26494;-88
2023/11/30 11:06:40;;;;;;;12.80;9.37;;;6.10;93.10;;;;;;785419;182;26644;-86
2023/11/30 11:09:07;;;;;;;16.17;10.40;;;6.10;92.80;;;;;;785426;182;26455;-85
2023/11/30 11:11:38;;;;;;;12.47;9.80;;;6.30;94.10;;;;;;785078;179;26472;-85
2023/11/30 11:14:04;;;;;;;14.77;9.80;;;6.30;93.30;;;;;;785012;181;26514;-85
2023/11/30 11:16:36;;;;;;;17.10;10.57;;;6.20;93.10;;;;;;784998;179;26473;-87
2023/11/30 11:19:04;;;;;;;17.13;10.83;;;6.20;93.90;;;;;;784828;182;26451;-86
2023/11/30 11:21:34;;;;;;;13.07;9.77;;;6.20;93.20;;;;;;784590;182;26525;-86
2023/11/30 11:24:01;;;;;;;11.77;9.07;;;6.10;92.50;;;;;;784235;179;26471;-86
2023/11/30 11:26:27;;;;;;;14.37;10.70;;;6.00;93.00;;;;;;784455;181;27851;-87
2023/11/30 11:28:54;;;;;;;17.20;11.17;;;6.10;93.00;;;;;;784646;179;27004;-85
2023/11/30 11:31:21;;;;;;;14.23;9.97;;;6.10;94.50;;;;;;784555;183;26484;-87
2023/11/30 11:33:47;;;;;;;16.67;10.93;;;6.30;93.90;;;;;;784543;181;26507;-85
2023/11/30 11:36:14;;;;;;;14.53;10.23;;;6.20;94.10;;;;;;784271;183;26603;-84
2023/11/30 11:38:42;;;;;;;13.63;9.77;;;6.30;93.40;;;;;;784015;183;26507;-86
2023/11/30 11:41:08;;;;;;;13.03;9.80;;;6.20;93.70;;;;;;784130;179;26991;-86
2023/11/30 11:43:35;;;;;;;12.27;9.40;;;6.20;93.10;;;;;;784202;179;27086;-87
2023/11/30 11:46:01;;;;;;;12.27;9.50;;;6.20;93.80;;;;;;784112;183;26484;-87
2023/11/30 11:48:28;;;;;;;14.87;10.17;;;6.20;92.10;;;;;;784073;179;26544;-85
2023/11/30 11:50:57;;;;;;;12.43;9.63;;;6.30;94.60;;;;;;784090;181;26497;-86
2023/11/30 11:53:24;;;;;;;14.47;11.10;;;6.20;92.90;;;;;;784009;179;26483;-86
2023/11/30 11:55:51;;;;;;;12.37;8.77;;;6.40;94.20;;;;;;784219;182;27006;-85
2023/11/30 11:58:17;;;;;;;11.43;9.30;;;6.40;93.00;;;;;;784000;182;26532;-86
2023/11/30 12:00:52;;;;;;;11.33;9.03;;;6.40;92.10;;;;;;784104;182;27067;-87
2023/11/30 12:03:20;;;;;;;12.03;9.47;;;6.40;92.80;;;;;;784065;181;27025;-86
2023/11/30 12:05:46;;;;;;;12.53;9.23;;;6.50;92.00;;;;;;783990;179;26558;-86
2023/11/30 12:08:12;;;;;;;11.27;9.37;;;6.40;93.30;;;;;;783968;180;26528;-87
2023/11/30 12:10:39;;;;;;;9.17;7.93;;;6.50;93.70;;;;;;784231;183;26513;-86
2023/11/30 12:13:06;;;;;;;13.83;10.90;;;6.50;92.60;;;;;;786514;179;26531;-86
2023/11/30 12:15:33;;;;;;;14.03;9.57;;;6.50;94.00;;;;;;786203;182;26483;-87
2023/11/30 12:18:00;;;;;;;12.97;9.93;;;6.50;93.30;;;;;;785465;182;27065;-85
2023/11/30 12:20:26;;;;;;;12.50;9.57;;;6.50;93.00;;;;;;785208;183;26537;-84
2023/11/30 12:22:52;;;;;;;14.10;9.83;;;6.50;93.10;;;;;;784927;182;26466;-85
2023/11/30 12:25:19;;;;;;;14.83;10.90;;;6.60;92.50;;;;;;785115;183;26451;-85
2023/11/30 12:27:45;;;;;;;14.70;10.80;;;6.70;92.40;;;;;;785041;182;26478;-87
2023/11/30 12:30:12;;;;;;;11.60;8.70;;;6.70;93.80;;;;;;784945;183;26455;-87
2023/11/30 12:32:39;;;;;;;13.03;9.77;;;6.70;91.80;;;;;;784700;182;26486;-87
2023/11/30 12:35:06;;;;;;;12.60;9.47;;;6.80;92.30;;;;;;784644;182;26551;-85
2023/11/30 12:37:33;;;;;;;16.77;10.10;;;6.70;92.40;;;;;;784776;183;26482;-84
2023/11/30 12:39:59;;;;;;;12.37;9.83;;;6.80;92.70;;;;;;784747;182;27008;-85
2023/11/30 12:42:27;;;;;;;12.57;10.20;;;6.80;92.60;;;;;;784864;182;26458;-85
2023/11/30 12:44:53;;;;;;;14.80;10.00;;;6.80;91.10;;;;;;784965;182;26471;-86
2023/11/30 12:47:20;;;;;;;12.57;9.93;;;6.90;92.30;;;;;;784733;179;27044;-85
2023/11/30 12:49:47;;;;;;;11.43;8.63;;;6.80;90.60;;;;;;784277;179;26461;-85
2023/11/30 12:52:14;;;;;;;13.07;10.07;;;6.80;91.00;;;;;;784312;182;26548;-85
2023/11/30 12:54:40;;;;;;;12.67;9.33;;;6.90;93.70;;;;;;784403;182;26454;-85
2023/11/30 12:57:07;;;;;;;14.20;10.17;;;6.80;93.20;;;;;;784377;182;26479;-86
2023/11/30 12:59:33;;;;;;;13.37;9.73;;;6.80;93.60;;;;;;784443;183;26774;-87
2023/11/30 13:02:00;;;;;;;14.93;10.93;;;6.90;91.60;;;;;;784554;179;26454;-86
2023/11/30 13:04:26;;;;;;;11.57;8.90;;;6.90;92.80;;;;;;784505;183;26540;-86
2023/11/30 13:06:53;;;;;;;14.03;9.07;;;6.90;91.90;;;;;;784538;182;26513;-86
2023/11/30 13:09:20;;;;;;;15.73;11.63;;;6.90;91.20;;;;;;784481;180;26470;-87
2023/11/30 13:11:46;;;;;;;16.43;12.50;;;6.90;93.10;;;;;;784725;182;26459;-87
2023/11/30 13:14:13;;;;;;;16.40;11.47;;;6.80;94.50;;;;;;785247;182;27020;-86
2023/11/30 13:16:40;;;;;;;12.83;10.30;;;6.70;93.00;;;;;;784077;180;27040;-85
2023/11/30 13:19:30;;;;;;;;;;;;;;;;;;;;;
2023/11/30 13:21:56;;;;;;;14.60;10.90;;;6.80;92.70;;;;;;784172;179;27013;-85